Time;durP1;ratioP1;P1;durP2;ratioP2;P2;SDS_P1;SDS_P2;PMS_P1;PMS_P2;Temp;Humidity;BMP_temperature;BMP_pressure;BME280_temperature;BME280_humidity;BME280_pressure;Samples;Min_cycle;Max_cycle;Signal;HPM_P1;HPM_P2
2022/12/19 00:02:09;;;;;;;41.78;21.98;;;0.30;99.90;;;;;;5094255;28;20048;-78
2022/12/19 00:04:36;;;;;;;40.28;22.23;;;0.30;99.90;;;;;;5073244;28;20138;-75
2022/12/19 00:07:02;;;;;;;43.10;23.05;;;0.30;99.90;;;;;;5051587;28;20400;-75
2022/12/19 00:09:28;;;;;;;45.58;22.02;;;0.30;99.90;;;;;;5090020;28;20040;-75
2022/12/19 00:11:53;;;;;;;44.10;22.13;;;0.30;99.90;;;;;;5058012;28;20036;-76
2022/12/19 00:14:19;;;;;;;46.13;22.80;;;0.30;99.90;;;;;;5078243;27;20672;-75
2022/12/19 00:16:45;;;;;;;42.20;23.33;;;0.40;99.90;;;;;;5058620;28;20148;-75
2022/12/19 00:19:11;;;;;;;50.63;23.25;;;1.10;99.90;;;;;;5080282;28;20048;-76
2022/12/19 00:21:37;;;;;;;44.88;22.67;;;0.40;99.90;;;;;;5058238;28;20247;-75
2022/12/19 00:24:06;;;;;;;45.40;21.98;;;0.40;99.90;;;;;;5093304;28;20043;-74
2022/12/19 00:26:35;;;;;;;46.05;22.55;;;0.50;99.90;;;;;;5078404;28;20087;-75
2022/12/19 00:29:04;;;;;;;46.53;21.95;;;0.80;99.90;;;;;;5083635;28;20043;-75
2022/12/19 00:31:33;;;;;;;43.88;23.33;;;0.50;99.90;;;;;;5071938;28;20039;-75
2022/12/19 00:34:00;;;;;;;42.13;22.15;;;0.80;99.90;;;;;;5071862;28;20072;-75
2022/12/19 00:36:28;;;;;;;44.35;22.63;;;0.50;99.90;;;;;;5062208;28;20048;-76
2022/12/19 00:38:56;;;;;;;42.40;22.55;;;0.60;99.90;;;;;;5094438;28;20047;-75
2022/12/19 00:41:25;;;;;;;46.72;22.40;;;0.60;99.90;;;;;;5076685;28;20496;-76
2022/12/19 00:44:05;;;;;;;46.63;22.77;;;1.00;99.90;;;;;;5073750;28;20040;-75
2022/12/19 00:46:32;;;;;;;46.85;22.35;;;0.60;99.90;;;;;;5073088;28;20083;-75
2022/12/19 00:48:59;;;;;;;43.63;22.95;;;0.60;99.90;;;;;;5101706;28;20074;-76
2022/12/19 00:51:27;;;;;;;45.22;22.90;;;0.60;99.90;;;;;;5094126;27;20729;-76
2022/12/19 00:53:55;;;;;;;44.08;23.08;;;0.70;99.90;;;;;;5090534;27;20039;-76
2022/12/19 00:56:27;;;;;;;41.75;21.98;;;0.90;99.90;;;;;;5087435;28;20138;-76
2022/12/19 00:58:53;;;;;;;44.58;23.13;;;0.70;99.90;;;;;;5076428;28;20605;-75
2022/12/19 01:01:29;;;;;;;42.22;22.38;;;0.70;99.90;;;;;;5079982;27;20437;-75
2022/12/19 01:03:57;;;;;;;48.33;23.27;;;0.70;99.90;;;;;;5075536;28;20076;-76
2022/12/19 01:06:23;;;;;;;43.22;23.10;;;0.70;99.90;;;;;;5078042;28;20123;-76
2022/12/19 01:08:48;;;;;;;44.42;23.75;;;0.70;99.90;;;;;;5059766;28;20039;-75
2022/12/19 01:11:14;;;;;;;47.13;23.42;;;0.70;99.90;;;;;;5099477;27;20058;-76
2022/12/19 01:13:40;;;;;;;47.72;23.35;;;0.70;99.90;;;;;;5082998;28;20690;-76
2022/12/19 01:16:11;;;;;;;49.63;24.45;;;0.70;99.90;;;;;;5078121;28;20043;-76
2022/12/19 01:18:37;;;;;;;43.40;22.48;;;1.30;99.90;;;;;;5075230;28;20794;-76
2022/12/19 01:21:06;;;;;;;48.63;24.98;;;0.80;99.90;;;;;;5062617;28;20059;-77
2022/12/19 01:23:32;;;;;;;46.70;24.08;;;0.80;99.90;;;;;;5091599;27;20040;-77
2022/12/19 01:25:58;;;;;;;46.17;23.85;;;0.90;99.90;;;;;;5075828;28;20036;-78
2022/12/19 01:28:24;;;;;;;49.50;22.77;;;0.90;99.90;;;;;;5074526;28;20476;-78
2022/12/19 01:30:50;;;;;;;49.28;23.42;;;1.10;99.90;;;;;;5099227;28;20035;-79
2022/12/19 01:33:19;;;;;;;48.50;23.92;;;1.00;99.90;;;;;;5070574;28;20054;-75
2022/12/19 01:35:46;;;;;;;43.90;22.80;;;1.00;99.90;;;;;;5092227;28;22065;-74
2022/12/19 01:38:17;;;;;;;51.03;24.38;;;1.00;99.90;;;;;;5091031;28;20051;-73
2022/12/19 01:40:51;;;;;;;47.75;23.73;;;1.00;99.90;;;;;;5073003;28;20054;-76
2022/12/19 01:43:17;;;;;;;47.03;23.55;;;1.20;99.90;;;;;;5076569;28;20097;-76
2022/12/19 01:45:43;;;;;;;48.88;23.25;;;1.10;99.90;;;;;;5094912;28;20043;-76
2022/12/19 01:48:21;;;;;;;43.97;23.77;;;1.10;99.90;;;;;;5082615;27;20120;-77
2022/12/19 01:50:55;;;;;;;45.40;22.60;;;1.50;99.90;;;;;;5068199;27;20044;-77
2022/12/19 01:53:24;;;;;;;48.72;22.75;;;1.10;99.90;;;;;;5097815;27;20040;-75
2022/12/19 01:55:50;;;;;;;41.22;21.65;;;1.70;99.90;;;;;;5095272;27;20040;-77
2022/12/19 01:58:17;;;;;;;50.35;24.15;;;1.20;99.90;;;;;;5097662;27;20389;-76
2022/12/19 02:00:43;;;;;;;47.10;23.83;;;1.20;99.90;;;;;;5081879;28;20089;-76
2022/12/19 02:03:33;;;;;;;47.33;23.50;;;1.20;99.90;;;;;;5063222;28;20438;-75
2022/12/19 02:06:00;;;;;;;44.63;23.30;;;1.20;99.90;;;;;;5076198;28;20491;-76
2022/12/19 02:08:27;;;;;;;54.38;24.67;;;1.30;99.90;;;;;;5058448;28;20618;-77
2022/12/19 02:10:52;;;;;;;49.05;24.90;;;1.20;99.90;;;;;;5056017;28;20048;-76
2022/12/19 02:13:19;;;;;;;48.40;24.33;;;1.30;99.90;;;;;;5094864;28;20397;-73
2022/12/19 02:15:49;;;;;;;52.50;23.95;;;1.20;99.90;;;;;;5073442;28;20044;-76
2022/12/19 02:18:38;;;;;;;54.35;24.23;;;1.20;99.90;;;;;;5072644;28;20048;-77
2022/12/19 02:21:17;;;;;;;49.88;24.38;;;1.20;99.90;;;;;;5071464;28;20539;-78
2022/12/19 02:24:23;;;;;;;55.35;26.13;;;1.30;99.90;;;;;;5097166;28;20465;-76
2022/12/19 02:26:57;;;;;;;49.28;24.30;;;1.20;99.90;;;;;;5081886;27;20077;-77
2022/12/19 02:29:57;;;;;;;49.00;24.15;;;1.20;99.90;;;;;;5094312;28;20509;-78
2022/12/19 02:33:01;;;;;;;52.72;25.88;;;1.20;99.90;;;;;;5073318;28;20467;-78
2022/12/19 02:35:35;;;;;;;55.40;25.67;;;1.20;99.90;;;;;;5057913;28;20855;-78
2022/12/19 02:38:30;;;;;;;49.85;24.33;;;1.20;99.90;;;;;;5072096;27;20062;-78
2022/12/19 02:41:04;;;;;;;49.97;25.02;;;2.20;99.90;;;;;;5054548;28;20104;-78
2022/12/19 02:43:34;;;;;;;50.03;24.85;;;1.30;99.90;;;;;;5058777;28;20621;-78
2022/12/19 02:46:02;;;;;;;50.72;25.08;;;1.30;99.90;;;;;;5085066;27;20135;-79
2022/12/19 02:48:28;;;;;;;54.10;26.02;;;1.30;99.90;;;;;;5076911;28;20055;-79
2022/12/19 02:50:54;;;;;;;53.30;27.10;;;1.30;99.90;;;;;;5063518;28;20031;-79
2022/12/19 02:53:20;;;;;;;50.08;26.70;;;1.30;99.90;;;;;;5092262;27;20101;-79
2022/12/19 02:56:07;;;;;;;57.33;27.65;;;1.30;99.90;;;;;;5082378;28;20150;-79
2022/12/19 02:59:08;;;;;;;57.90;26.33;;;1.30;99.90;;;;;;5078610;28;20032;-80
2022/12/19 03:02:07;;;;;;;58.17;26.40;;;1.40;99.90;;;;;;5078451;28;20044;-78
2022/12/19 03:05:02;;;;;;;51.95;26.88;;;1.30;99.90;;;;;;5047182;28;20293;-78
2022/12/19 03:07:48;;;;;;;59.45;27.02;;;1.40;99.90;;;;;;5071363;28;20436;-79
2022/12/19 03:10:32;;;;;;;56.42;25.63;;;1.40;99.90;;;;;;5057274;28;20051;-78
2022/12/19 03:13:19;;;;;;;59.35;28.48;;;2.00;99.90;;;;;;5075070;28;20140;-76
2022/12/19 03:15:45;;;;;;;56.85;28.45;;;1.40;99.90;;;;;;5064173;28;20066;-79
2022/12/19 03:18:11;;;;;;;64.15;29.55;;;1.50;99.90;;;;;;5077255;28;20179;-80
2022/12/19 03:21:27;;;;;;;52.78;27.10;;;1.50;99.90;;;;;;5057389;28;20040;-79
2022/12/19 03:23:54;;;;;;;56.35;26.75;;;1.50;99.90;;;;;;5022034;28;20041;-80
2022/12/19 03:26:24;;;;;;;59.28;28.88;;;1.50;99.90;;;;;;5095646;28;20052;-81
2022/12/19 03:29:19;;;;;;;53.85;28.67;;;1.50;99.90;;;;;;5086793;28;20391;-81
2022/12/19 03:31:46;;;;;;;55.53;26.50;;;1.50;99.90;;;;;;5055728;28;20087;-79
2022/12/19 03:34:49;;;;;;;58.53;28.98;;;1.60;99.90;;;;;;5086625;28;20086;-82
2022/12/19 03:37:19;;;;;;;56.83;28.25;;;1.60;99.90;;;;;;5081376;28;20060;-82
2022/12/19 03:39:49;;;;;;;59.45;29.15;;;1.70;99.90;;;;;;5065320;28;20052;-80
2022/12/19 03:45:05;;;;;;;58.45;28.63;;;1.70;99.90;;;;;;5071402;28;20413;-77
2022/12/19 03:47:38;;;;;;;60.47;29.48;;;1.70;99.90;;;;;;5062506;28;20046;-78
2022/12/19 03:50:05;;;;;;;60.78;30.25;;;1.70;99.90;;;;;;5096479;28;20048;-80
2022/12/19 03:52:50;;;;;;;67.55;32.50;;;1.80;99.90;;;;;;5100559;28;20054;-77
2022/12/19 03:55:18;;;;;;;67.82;31.67;;;1.80;99.90;;;;;;5066854;28;20350;-81
2022/12/19 03:57:54;;;;;;;64.47;31.30;;;1.80;99.90;;;;;;5094121;28;20036;-78
2022/12/19 04:00:23;;;;;;;64.93;31.35;;;1.80;99.90;;;;;;5078688;27;20050;-78
2022/12/19 04:02:52;;;;;;;64.95;31.95;;;1.90;99.90;;;;;;5081902;28;20048;-79
2022/12/19 04:05:22;;;;;;;64.57;32.35;;;1.80;99.90;;;;;;5061175;28;20036;-79
2022/12/19 04:07:50;;;;;;;64.13;31.73;;;1.90;99.90;;;;;;5064964;28;20540;-78
2022/12/19 04:10:19;;;;;;;66.07;30.75;;;2.50;99.90;;;;;;5078546;28;20052;-80
2022/12/19 04:12:50;;;;;;;68.10;31.55;;;1.90;99.90;;;;;;5063913;28;20047;-79
2022/12/19 04:15:16;;;;;;;67.03;32.65;;;1.90;99.90;;;;;;5062315;28;20063;-78
2022/12/19 04:17:56;;;;;;;68.88;32.65;;;2.00;99.90;;;;;;5073441;28;20047;-79
2022/12/19 04:20:25;;;;;;;72.88;33.80;;;2.00;99.90;;;;;;5076711;28;20052;-78
2022/12/19 04:23:23;;;;;;;61.80;30.15;;;2.80;99.90;;;;;;5077118;28;20040;-77
2022/12/19 04:25:56;;;;;;;65.45;30.95;;;2.00;99.90;;;;;;5051779;28;20449;-77
2022/12/19 04:28:29;;;;;;;64.82;31.38;;;2.90;99.90;;;;;;5059235;28;20054;-78
2022/12/19 04:30:55;;;;;;;61.20;30.70;;;2.50;99.90;;;;;;5062385;28;20054;-79
2022/12/19 04:33:21;;;;;;;63.13;31.70;;;2.10;99.90;;;;;;5097701;28;20035;-79
2022/12/19 04:35:47;;;;;;;68.28;31.52;;;2.10;99.90;;;;;;5061433;28;20381;-79
2022/12/19 04:38:13;;;;;;;62.45;30.98;;;2.50;99.90;;;;;;5092899;28;20050;-78
2022/12/19 04:40:39;;;;;;;71.85;32.08;;;2.10;99.90;;;;;;5077136;28;20044;-79
2022/12/19 04:43:06;;;;;;;66.78;32.70;;;2.20;99.90;;;;;;5074059;28;20036;-79
2022/12/19 04:45:32;;;;;;;74.57;33.70;;;2.20;99.90;;;;;;5070524;28;20047;-76
2022/12/19 04:47:58;;;;;;;74.45;33.70;;;2.30;99.90;;;;;;5073765;28;20043;-76
2022/12/19 04:50:24;;;;;;;68.25;33.38;;;2.20;99.90;;;;;;5055731;28;20449;-77
2022/12/19 04:52:50;;;;;;;70.20;33.30;;;3.00;99.90;;;;;;5056798;28;20054;-78
2022/12/19 04:55:15;;;;;;;70.70;33.58;;;2.30;99.90;;;;;;5077195;28;20079;-79
2022/12/19 04:57:41;;;;;;;64.13;32.22;;;2.40;99.90;;;;;;5076990;28;20039;-79
2022/12/19 05:00:08;;;;;;;69.82;31.83;;;2.30;99.90;;;;;;5092710;27;20162;-79
2022/12/19 05:02:34;;;;;;;66.68;32.40;;;2.40;99.90;;;;;;5093501;28;20039;-78
2022/12/19 05:05:00;;;;;;;74.90;32.33;;;2.40;99.90;;;;;;5064146;28;20036;-78
2022/12/19 05:07:25;;;;;;;69.28;32.88;;;2.40;99.90;;;;;;5058332;28;20074;-79
2022/12/19 05:09:51;;;;;;;65.50;31.50;;;2.40;99.90;;;;;;5104257;28;20032;-78
2022/12/19 05:12:17;;;;;;;66.78;32.03;;;2.40;99.90;;;;;;5096557;28;20049;-78
2022/12/19 05:14:43;;;;;;;65.90;32.95;;;3.00;99.90;;;;;;5057089;28;20061;-76
2022/12/19 05:17:09;;;;;;;70.25;34.30;;;2.40;99.90;;;;;;5077714;28;20109;-77
2022/12/19 05:19:35;;;;;;;70.07;34.15;;;2.50;99.90;;;;;;5057784;28;20048;-77
2022/12/19 05:22:01;;;;;;;66.47;31.42;;;2.70;99.90;;;;;;5059171;28;20186;-76
2022/12/19 05:24:26;;;;;;;71.30;32.20;;;2.50;99.90;;;;;;5075530;28;20083;-77
2022/12/19 05:26:52;;;;;;;61.95;30.60;;;2.50;99.90;;;;;;5076455;28;20092;-77
2022/12/19 05:29:18;;;;;;;67.20;31.48;;;3.10;99.90;;;;;;5093633;28;20048;-77
2022/12/19 05:31:44;;;;;;;65.32;30.23;;;2.60;99.90;;;;;;5075325;28;20040;-76
2022/12/19 05:34:09;;;;;;;60.53;29.42;;;2.60;99.90;;;;;;5067552;28;20048;-77
2022/12/19 05:36:38;;;;;;;62.55;29.45;;;2.60;99.90;;;;;;5072929;28;20057;-78
2022/12/19 05:39:04;;;;;;;65.80;30.80;;;2.70;99.90;;;;;;5068629;28;20130;-77
2022/12/19 05:41:29;;;;;;;58.97;28.60;;;2.70;99.90;;;;;;5054644;28;20044;-78
2022/12/19 05:43:55;;;;;;;58.45;28.60;;;2.70;99.90;;;;;;5071805;28;20036;-76
2022/12/19 05:46:22;;;;;;;62.03;28.30;;;2.80;99.90;;;;;;5096303;28;20046;-77
2022/12/19 05:48:48;;;;;;;56.78;27.40;;;2.80;99.90;;;;;;5079985;28;20082;-76
2022/12/19 05:51:14;;;;;;;58.40;28.17;;;2.90;99.90;;;;;;5074051;28;20047;-78
2022/12/19 05:53:40;;;;;;;58.30;28.88;;;2.90;99.90;;;;;;5076229;28;20038;-77
2022/12/19 05:56:15;;;;;;;55.78;27.92;;;2.90;99.90;;;;;;5060273;28;20151;-77
2022/12/19 05:58:42;;;;;;;58.15;26.73;;;3.00;99.90;;;;;;5074497;28;20079;-76
2022/12/19 06:01:13;;;;;;;51.60;25.60;;;3.10;99.90;;;;;;5078603;28;20782;-76
2022/12/19 06:03:39;;;;;;;48.20;24.58;;;3.00;99.90;;;;;;5054516;28;20112;-76
2022/12/19 06:06:08;;;;;;;50.85;24.15;;;3.10;99.90;;;;;;5074656;28;20028;-77
2022/12/19 06:08:34;;;;;;;48.67;24.30;;;3.10;99.90;;;;;;5075700;28;20460;-76
2022/12/19 06:11:02;;;;;;;48.20;22.98;;;3.10;99.90;;;;;;5074595;28;20051;-77
2022/12/19 06:13:29;;;;;;;46.33;23.80;;;3.10;99.90;;;;;;5069575;28;20040;-77
2022/12/19 06:16:03;;;;;;;45.55;23.48;;;3.20;99.90;;;;;;5093051;27;20577;-75
2022/12/19 06:18:30;;;;;;;51.60;25.13;;;3.20;99.90;;;;;;5074354;28;20126;-76
2022/12/19 06:21:06;;;;;;;49.63;23.73;;;3.20;99.90;;;;;;5072849;28;20419;-76
2022/12/19 06:23:34;;;;;;;53.58;24.50;;;3.20;99.90;;;;;;5088324;28;20044;-76
2022/12/19 06:26:01;;;;;;;49.25;23.50;;;3.20;99.90;;;;;;5059339;28;20036;-76
2022/12/19 06:28:29;;;;;;;43.60;22.63;;;3.30;99.90;;;;;;5076492;28;20091;-76
2022/12/19 06:30:59;;;;;;;44.88;22.65;;;3.30;99.90;;;;;;5070886;28;20059;-76
2022/12/19 06:33:25;;;;;;;45.00;23.10;;;3.30;99.90;;;;;;5089429;28;20036;-75
2022/12/19 06:35:58;;;;;;;44.08;22.67;;;3.30;99.90;;;;;;5066247;28;20517;-76
2022/12/19 06:38:24;;;;;;;43.42;22.58;;;3.40;99.90;;;;;;5086644;28;20054;-76
2022/12/19 06:43:35;;;;;;;43.05;20.23;;;3.50;99.90;;;;;;5066074;28;20151;-76
2022/12/19 06:46:00;;;;;;;39.00;20.08;;;3.50;99.90;;;;;;5070786;28;20822;-76
2022/12/19 06:48:27;;;;;;;41.20;20.50;;;3.50;99.90;;;;;;5071344;28;20077;-77
2022/12/19 06:50:52;;;;;;;37.72;19.90;;;3.60;99.90;;;;;;5074003;28;20052;-77
2022/12/19 06:53:18;;;;;;;40.33;20.15;;;3.60;99.90;;;;;;5073954;28;20051;-77
2022/12/19 06:55:49;;;;;;;42.30;20.13;;;3.70;99.90;;;;;;5070678;28;20039;-77
2022/12/19 06:58:15;;;;;;;43.08;20.30;;;3.70;99.90;;;;;;5095915;27;20400;-76
2022/12/19 07:00:41;;;;;;;37.95;19.05;;;4.10;99.90;;;;;;5092488;27;20450;-75
2022/12/19 07:03:10;;;;;;;38.63;18.88;;;3.70;99.90;;;;;;5100076;27;20031;-77
2022/12/19 07:05:39;;;;;;;40.30;19.80;;;3.70;99.90;;;;;;5058165;28;20124;-77
2022/12/19 07:08:06;;;;;;;35.05;17.23;;;3.70;99.90;;;;;;5068270;28;20044;-75
2022/12/19 07:10:32;;;;;;;38.38;18.55;;;3.80;99.90;;;;;;5087407;28;20118;-76
2022/12/19 07:12:58;;;;;;;37.55;18.60;;;3.80;99.90;;;;;;5068012;28;20054;-76
2022/12/19 07:15:24;;;;;;;32.72;17.45;;;3.80;99.90;;;;;;5091472;28;20119;-76
2022/12/19 07:17:50;;;;;;;32.85;17.90;;;3.70;99.90;;;;;;5101422;27;20774;-75
2022/12/19 07:20:16;;;;;;;36.00;18.13;;;3.80;99.90;;;;;;5077033;28;20743;-76
2022/12/19 07:22:43;;;;;;;36.47;18.45;;;3.80;99.90;;;;;;5065115;28;20427;-76
2022/12/19 07:25:09;;;;;;;33.35;18.23;;;3.80;99.90;;;;;;5061739;28;20048;-76
2022/12/19 07:27:35;;;;;;;38.67;19.27;;;3.80;99.90;;;;;;5088394;28;20040;-75
2022/12/19 07:30:03;;;;;;;30.15;17.38;;;3.90;99.90;;;;;;5068033;28;20142;-75
2022/12/19 07:32:28;;;;;;;32.90;16.95;;;3.90;99.90;;;;;;5091106;28;20127;-75
2022/12/19 07:34:54;;;;;;;31.02;16.90;;;3.90;99.90;;;;;;5058494;28;20158;-76
2022/12/19 07:37:20;;;;;;;32.85;17.38;;;3.90;99.90;;;;;;5094719;28;20629;-75
2022/12/19 07:39:47;;;;;;;31.08;17.38;;;4.00;99.90;;;;;;5093795;28;20071;-76
2022/12/19 07:42:12;;;;;;;31.02;17.45;;;4.00;99.90;;;;;;5058870;28;22999;-75
2022/12/19 07:44:38;;;;;;;35.13;16.85;;;4.00;99.90;;;;;;5077544;28;20107;-75
2022/12/19 07:47:04;;;;;;;36.90;17.08;;;4.10;99.90;;;;;;5076445;28;20048;-76
2022/12/19 07:49:30;;;;;;;30.92;16.25;;;4.10;99.90;;;;;;5090803;28;20047;-75
2022/12/19 07:51:55;;;;;;;32.90;16.92;;;4.60;99.90;;;;;;5071292;28;20039;-76
2022/12/19 07:54:21;;;;;;;35.28;16.80;;;4.10;99.90;;;;;;5048553;28;20039;-76
2022/12/19 07:56:47;;;;;;;32.70;16.67;;;4.10;99.90;;;;;;5073615;28;20496;-76
2022/12/19 07:59:12;;;;;;;31.92;15.45;;;4.10;99.90;;;;;;5068056;28;20884;-76
2022/12/19 08:01:38;;;;;;;32.90;17.02;;;4.20;99.90;;;;;;5065576;28;20508;-75
2022/12/19 08:04:04;;;;;;;34.05;16.27;;;4.20;99.90;;;;;;5067098;28;20128;-75
2022/12/19 08:06:30;;;;;;;29.63;16.08;;;4.20;99.90;;;;;;5070882;28;20044;-75
2022/12/19 08:08:56;;;;;;;35.20;16.75;;;4.30;99.90;;;;;;5067047;28;20070;-76
2022/12/19 08:11:26;;;;;;;28.25;15.38;;;4.30;99.90;;;;;;5064426;28;20633;-76
2022/12/19 08:13:52;;;;;;;30.60;16.23;;;4.40;99.90;;;;;;5052500;28;20140;-73
2022/12/19 08:16:18;;;;;;;28.75;15.68;;;4.40;99.90;;;;;;5070926;28;20633;-76
2022/12/19 08:18:44;;;;;;;28.52;15.85;;;4.50;99.90;;;;;;5066528;28;20094;-77
2022/12/19 08:21:11;;;;;;;35.22;16.40;;;4.50;99.90;;;;;;5061978;28;20079;-76
2022/12/19 08:23:40;;;;;;;33.95;16.55;;;4.60;99.90;;;;;;5071042;28;20683;-75
2022/12/19 08:26:18;;;;;;;28.30;15.70;;;4.60;99.90;;;;;;5068968;28;20450;-75
2022/12/19 08:28:47;;;;;;;27.08;16.50;;;4.60;99.90;;;;;;5065140;28;20455;-77
2022/12/19 08:31:16;;;;;;;27.23;15.13;;;4.60;99.90;;;;;;5067630;28;20094;-76
2022/12/19 08:33:42;;;;;;;33.40;15.85;;;4.70;99.90;;;;;;5079775;28;20598;-76
2022/12/19 08:36:10;;;;;;;28.98;16.05;;;4.70;99.90;;;;;;5093346;27;20593;-77
2022/12/19 08:38:36;;;;;;;30.42;14.05;;;4.70;99.90;;;;;;5070627;27;20044;-76
2022/12/19 08:41:02;;;;;;;27.10;15.23;;;4.70;99.90;;;;;;5073393;27;20051;-74
2022/12/19 08:43:29;;;;;;;28.05;15.57;;;4.70;99.90;;;;;;5077660;27;20114;-76
2022/12/19 08:45:55;;;;;;;27.42;14.88;;;4.80;99.90;;;;;;5070082;28;20051;-76
2022/12/19 08:48:22;;;;;;;28.60;15.43;;;5.00;99.90;;;;;;5053511;28;20047;-74
2022/12/19 08:50:56;;;;;;;28.95;15.80;;;4.90;99.90;;;;;;5072056;28;20558;-77
2022/12/19 08:53:23;;;;;;;27.98;16.02;;;5.00;99.90;;;;;;5063351;27;20047;-76
2022/12/19 08:56:19;;;;;;;31.23;16.60;;;4.90;99.90;;;;;;5048035;28;20073;-76
2022/12/19 08:58:45;;;;;;;31.13;16.90;;;5.00;99.90;;;;;;5062522;28;20059;-76
2022/12/19 09:01:14;;;;;;;28.75;15.82;;;5.10;99.90;;;;;;5067840;28;20463;-76
2022/12/19 09:03:41;;;;;;;30.00;16.65;;;5.10;99.90;;;;;;5073964;28;20060;-76
2022/12/19 09:06:09;;;;;;;29.63;16.15;;;5.10;99.90;;;;;;5069631;28;20168;-76
2022/12/19 09:08:39;;;;;;;28.20;15.48;;;5.70;99.90;;;;;;5075797;27;20064;-76
2022/12/19 09:11:08;;;;;;;26.10;15.25;;;5.30;99.90;;;;;;5079323;27;20051;-74
2022/12/19 09:13:35;;;;;;;29.67;16.98;;;5.30;99.90;;;;;;5069303;27;20043;-76
2022/12/19 09:16:12;;;;;;;26.25;15.82;;;5.40;99.90;;;;;;5048574;27;20051;-75
2022/12/19 09:18:39;;;;;;;28.15;16.45;;;5.40;99.90;;;;;;5057222;28;20059;-75
2022/12/19 09:21:06;;;;;;;29.13;17.48;;;5.40;99.90;;;;;;5072270;28;20044;-75
2022/12/19 09:23:32;;;;;;;32.15;17.50;;;5.50;99.90;;;;;;5095193;27;20626;-75
2022/12/19 09:26:04;;;;;;;29.48;17.08;;;5.50;99.90;;;;;;5061379;27;20044;-75
2022/12/19 09:28:30;;;;;;;29.90;17.08;;;5.50;99.90;;;;;;5076695;28;20452;-75
2022/12/19 09:31:03;;;;;;;28.00;17.65;;;5.60;99.90;;;;;;5086120;28;20631;-75
2022/12/19 09:33:31;;;;;;;33.53;19.23;;;5.70;99.90;;;;;;5070637;28;20468;-76
2022/12/19 09:35:57;;;;;;;30.58;18.30;;;5.60;99.90;;;;;;5071913;28;20051;-75
2022/12/19 09:38:24;;;;;;;34.75;19.67;;;5.70;99.90;;;;;;5073130;28;20085;-76
2022/12/19 09:41:20;;;;;;;32.92;20.30;;;5.80;99.90;;;;;;5074736;28;20127;-74
2022/12/19 09:44:23;;;;;;;33.55;19.77;;;5.80;99.90;;;;;;5087810;28;20405;-74
2022/12/19 09:46:59;;;;;;;31.77;19.23;;;5.80;99.90;;;;;;5067843;28;21190;-75
2022/12/19 09:49:38;;;;;;;35.13;19.40;;;5.90;99.90;;;;;;5070433;28;20144;-74
2022/12/19 09:52:06;;;;;;;34.13;19.70;;;5.90;99.90;;;;;;5072643;28;20047;-73
2022/12/19 09:54:44;;;;;;;30.30;19.42;;;6.00;99.90;;;;;;5068603;28;20048;-75
2022/12/19 09:57:37;;;;;;;31.42;19.02;;;6.00;99.90;;;;;;5072274;28;20040;-74
2022/12/19 10:00:16;;;;;;;30.58;18.70;;;6.00;99.90;;;;;;5058357;27;20048;-73
2022/12/19 10:03:06;;;;;;;34.03;19.10;;;6.10;99.90;;;;;;5073961;28;20048;-74
2022/12/19 10:05:55;;;;;;;31.80;19.23;;;6.10;99.90;;;;;;5087906;28;20073;-75
2022/12/19 10:08:32;;;;;;;31.23;19.55;;;6.20;99.90;;;;;;5090363;28;20114;-73
2022/12/19 10:11:25;;;;;;;35.50;19.20;;;6.20;99.90;;;;;;5074251;28;20062;-74
2022/12/19 10:14:17;;;;;;;33.75;18.67;;;6.30;99.90;;;;;;5055884;28;20090;-75
2022/12/19 10:17:02;;;;;;;32.13;18.98;;;6.30;99.90;;;;;;5063207;28;20056;-74
2022/12/19 10:19:49;;;;;;;31.58;19.27;;;6.30;99.90;;;;;;5077989;28;20097;-74
2022/12/19 10:22:37;;;;;;;33.53;18.33;;;6.40;99.90;;;;;;5075840;28;20043;-75
2022/12/19 10:25:40;;;;;;;33.65;18.83;;;6.40;99.90;;;;;;5084957;28;20047;-75
2022/12/19 10:28:21;;;;;;;29.90;17.80;;;6.50;99.90;;;;;;5089959;28;20872;-73
2022/12/19 10:31:15;;;;;;;28.88;18.83;;;6.50;99.90;;;;;;5097952;28;20737;-72
2022/12/19 10:33:55;;;;;;;30.77;18.55;;;6.50;99.90;;;;;;5079641;28;20058;-73
2022/12/19 10:36:23;;;;;;;31.95;18.85;;;6.60;99.90;;;;;;5055042;28;20146;-72
2022/12/19 10:39:02;;;;;;;28.13;17.08;;;7.00;99.90;;;;;;5074304;28;20067;-73
2022/12/19 10:41:31;;;;;;;31.98;19.60;;;6.70;99.90;;;;;;5069193;28;20404;-73
2022/12/19 10:44:01;;;;;;;33.33;18.45;;;6.70;99.90;;;;;;5095298;28;20544;-73
2022/12/19 10:46:36;;;;;;;28.23;17.60;;;6.70;99.90;;;;;;5057928;28;20084;-73
2022/12/19 10:49:24;;;;;;;31.15;17.30;;;6.80;99.90;;;;;;5073387;28;20044;-73
2022/12/19 10:52:02;;;;;;;29.77;17.42;;;6.90;99.90;;;;;;5087788;28;20673;-73
2022/12/19 10:54:38;;;;;;;27.20;16.73;;;6.80;99.90;;;;;;5057328;28;20036;-73
2022/12/19 10:57:24;;;;;;;25.45;15.95;;;6.90;99.90;;;;;;5089606;28;20135;-74
2022/12/19 11:00:04;;;;;;;24.10;15.25;;;7.00;99.90;;;;;;5094355;27;20035;-74
2022/12/19 11:02:37;;;;;;;24.45;15.40;;;6.90;99.90;;;;;;5057011;28;20040;-73
2022/12/19 11:05:28;;;;;;;24.95;16.15;;;7.00;99.90;;;;;;5073952;28;20105;-73
2022/12/19 11:08:06;;;;;;;27.15;15.93;;;7.00;99.90;;;;;;5074546;28;20059;-72
2022/12/19 11:10:40;;;;;;;24.98;15.20;;;7.10;99.90;;;;;;5076514;28;20389;-73
2022/12/19 11:13:28;;;;;;;24.23;15.50;;;7.10;99.90;;;;;;5071511;28;20043;-72
2022/12/19 11:15:57;;;;;;;24.33;15.02;;;7.20;99.90;;;;;;5074980;28;20048;-73
2022/12/19 11:18:32;;;;;;;23.50;13.98;;;7.50;99.90;;;;;;5086007;28;20068;-73
2022/12/19 11:20:59;;;;;;;23.98;15.35;;;7.20;99.90;;;;;;5090076;28;20142;-73
2022/12/19 11:23:27;;;;;;;23.90;14.38;;;7.30;99.90;;;;;;5089121;28;20040;-73
2022/12/19 11:25:57;;;;;;;22.08;13.90;;;7.30;99.90;;;;;;5071552;28;20568;-73
2022/12/19 11:28:31;;;;;;;23.80;13.98;;;7.30;99.90;;;;;;5070601;28;20052;-72
2022/12/19 11:31:07;;;;;;;24.05;14.27;;;7.40;99.90;;;;;;5095134;28;20054;-74
2022/12/19 11:33:33;;;;;;;22.73;13.05;;;7.40;99.90;;;;;;5077655;28;20040;-73
2022/12/19 11:36:01;;;;;;;20.23;13.55;;;7.40;99.90;;;;;;5080450;28;20113;-72
2022/12/19 11:38:36;;;;;;;21.67;12.38;;;7.50;99.90;;;;;;5073167;28;20637;-73
2022/12/19 11:41:17;;;;;;;20.20;12.68;;;7.50;99.90;;;;;;5057197;28;20084;-73
2022/12/19 11:43:57;;;;;;;20.63;12.95;;;7.50;99.90;;;;;;5076666;28;20114;-75
2022/12/19 11:46:41;;;;;;;20.65;12.40;;;7.60;99.90;;;;;;5068916;28;20047;-74
2022/12/19 11:49:33;;;;;;;19.83;12.60;;;7.60;99.90;;;;;;5087483;28;20417;-73
2022/12/19 11:52:32;;;;;;;20.33;12.65;;;7.60;99.90;;;;;;5063185;28;20439;-73
2022/12/19 11:55:13;;;;;;;19.95;12.38;;;7.60;99.90;;;;;;5092930;28;20047;-73
2022/12/19 11:57:40;;;;;;;18.45;12.38;;;7.60;99.90;;;;;;5068677;28;20055;-73
2022/12/19 12:00:17;;;;;;;21.60;12.80;;;7.70;99.90;;;;;;5053771;28;20040;-74
2022/12/19 12:03:10;;;;;;;26.35;13.18;;;7.70;99.90;;;;;;5073062;28;20386;-74
2022/12/19 12:05:45;;;;;;;17.55;11.45;;;7.70;99.90;;;;;;5056265;28;20459;-73
2022/12/19 12:08:36;;;;;;;18.73;11.98;;;7.80;99.90;;;;;;5093680;28;20047;-74
2022/12/19 12:11:12;;;;;;;19.70;12.10;;;7.80;99.90;;;;;;5092718;28;20052;-72
2022/12/19 12:14:01;;;;;;;18.95;12.07;;;7.80;99.90;;;;;;5093932;28;20443;-73
2022/12/19 12:17:05;;;;;;;18.90;11.63;;;7.80;99.90;;;;;;5101499;28;20600;-73
2022/12/19 12:19:44;;;;;;;21.10;12.18;;;7.90;99.90;;;;;;5042481;28;20548;-73
2022/12/19 12:22:42;;;;;;;18.40;12.10;;;7.90;99.90;;;;;;5069794;28;20083;-72
2022/12/19 12:25:26;;;;;;;19.08;11.90;;;7.90;99.90;;;;;;5072663;28;20036;-74
2022/12/19 12:28:07;;;;;;;20.42;11.63;;;7.90;99.90;;;;;;5071751;28;20085;-73
2022/12/19 12:30:57;;;;;;;17.00;10.95;;;7.90;99.90;;;;;;5090906;28;20553;-72
2022/12/19 12:33:41;;;;;;;17.83;11.63;;;7.90;99.90;;;;;;5089936;28;20044;-74
2022/12/19 12:36:40;;;;;;;20.85;11.68;;;7.90;99.90;;;;;;5059938;28;20047;-72
2022/12/19 12:39:24;;;;;;;22.23;11.40;;;7.90;99.90;;;;;;5041005;28;20052;-72
2022/12/19 12:42:05;;;;;;;19.70;11.68;;;7.90;99.90;;;;;;5076904;28;20036;-73
2022/12/19 12:44:38;;;;;;;18.27;11.57;;;7.90;99.90;;;;;;5093533;28;20128;-73
2022/12/19 12:47:19;;;;;;;18.30;11.38;;;7.90;99.90;;;;;;5081273;28;20040;-73
2022/12/19 12:49:59;;;;;;;21.70;11.30;;;7.90;99.90;;;;;;5068830;28;20076;-73
2022/12/19 12:52:34;;;;;;;20.17;10.98;;;7.90;99.90;;;;;;5082770;28;20044;-73
2022/12/19 12:55:01;;;;;;;19.55;10.88;;;7.90;99.90;;;;;;5078112;28;20032;-74
2022/12/19 12:57:27;;;;;;;18.15;10.90;;;7.90;99.90;;;;;;5058746;28;20118;-74
2022/12/19 13:00:23;;;;;;;17.67;11.02;;;8.00;99.90;;;;;;5073602;27;20058;-74
2022/12/19 13:02:57;;;;;;;17.77;11.02;;;8.00;99.90;;;;;;5069680;28;20072;-73
2022/12/19 13:05:45;;;;;;;17.95;11.00;;;8.00;99.90;;;;;;5089563;28;20481;-74
2022/12/19 13:08:35;;;;;;;14.90;10.13;;;8.00;99.90;;;;;;5023324;28;20122;-74
2022/12/19 13:12:58;;;;;;;16.85;10.98;;;8.00;99.90;;;;;;5074668;28;20135;-74